Scroll down
FLIGHT INFORMATION
American Airlines

AAL2895

At Arrival Gate

KORD
 KCLT
DATE: 2020-07-12
GATE:  -
GATE DEPARTURE: 14:51
TAKEOFF: 15:00
DATE: 2020-07-12
GATE:  -
LANDING: 16:26
GATE ARRIVAL: 16:36
FLIGHT DATA
Crew: 
Speed: 
490 kts
Altitude: 
31,008 ft
Stage Length: 
520.8 nm
Block Time: 
1.8 hrs
Flight Time: 
1.4 hrs
Fuel Used: 
10,882 lb
Cleared Route: KORD EARND ELANR EMMLY ERECO IIU SKYWA NIZAM COMDY BLAYQ PHAYE JJENY FILPZ ADOWN INWAL JELNO CEDOX VALLL NIVSE RW36C
TRACK DATA
50,000 ft 1,000 kts
AIRCRAFT INFO AND CUMULATIVE STATS
Aircraft Type: 
B738BW
Registration: 
SELCAL: 
CPBJ
MSN/LN: 
33323 / 4655
Operator: 
Total Flights: 
19
Total Block Time: 
35.3 hrs
Total Flight Time: 
29.8 hrs
Total Fuel Time: 
205,019 lb
DATALINK LOG | Newest first | Current as of: 2021-01-27 14:29:39
LABEL SEQUENCE CONTENT Dn/Up
QD380016:36 8.1▼ Dn
QC275016:26▼ Dn
2U0809KCLT 121552Z 23006KT 10SM FEW045 SCT250 31/16 A2988 RMK AO2 SLP108 T03060161▲ Up
2S0933KCLT▼ Dn
2U5849KCLT 121452Z VRB03KT 10SM SCT250 30/16 A2989 RMK AO2 SLP112 T03000161 50003▲ Up
2S5923KCLT▼ Dn
QB023015:00▼ Dn
QA522214:51 19▼ Dn
2U4851KORD 121415Z 03018G25KT 10SM BKN027 BKN250 24/17 A2987 RMK AO2 T02440167▲ Up
2S4919KORD▼ Dn
2U4616KORD 121415Z 03018G25KT 10SM BKN027 BKN250 24/17 A2987 RMK AO2 T02440167▲ Up
2S4718KORD▼ Dn
A33314CLEARED TO KCLT VIA EARND ELANR EMMLY ERECO IIU SKYWA FILPZ3. SQUAWK .▲ Up
5U3214KCLT 121817Z 23008KT 10SM FEW050 SCT250 28/17 A2990▲ Up
2U3209KORD 121351Z 02017KT 10SM SCT024 SCT250 24/17 A2986 RMK AO2 SLP107 T02440172▲ Up
5S3311KCLT▼ Dn
2S3311KORD▼ Dn
Q03204[LINK ACK]▲ Up
Q03204[LINK TEST]▼ Dn


AIRCRAFT HISTORY
FLIGHT DATE FLIGHT NO. ORIGIN DESTINATION CLEARED ROUTE BLOCK TIME FLIGHT TIME FUEL USED PILOT
2020-10-19AAL1476KSNA KPHX KSNA STREL TANGL SHIRR DANAH PIGGN WIILD FLWRZ BLCKD CSTWY CNERY BLH SCOLE SPINK SNRRA SWOON HYDRR GEELA AGGLA CHAVO LEMOE ZERLO RW25L1.2 hrs0.9 hrs6,421 lbMichael Collier
2020-10-17AAL486KPHX KSNA KPHX WULKO KEENS IZZZO CULTS HRRBR EMLLD LITNG WTTCH DRTHI CHURO BRCKK ROADE PHIYA DSNEE JWARD HUKEM RW20R1.2 hrs0.9 hrs6,134 lbMichael Collier
2020-10-16AAL791KLAS KPHX KLAS RBELL ROPPR CEASR HITME COWBY TENTS PANTD DUTEY MAIER BRUSR ANNTI ZILUB BRIEZ KUCOO JURAZ JAGAL RW261.1 hrs0.9 hrs5,673 lbMichael Collier
2020-09-08AAL1858KLAS KLAS KLAS RBELL ROPPR CEASR HITME COWBY TENTS PANTD DUTEY MAIER BRUSR ANNTI ZILUB BRIEZ KUCOO JURAZ JAGAL RW261.1 hrs0.7 hrs5,261 lbMichael Collier
2020-08-10AAL1809KSJC KLAS KSJC TECKY NTELL CABAB VIKSN KENNO ESSAA BTY KLAS1.6 hrs1.2 hrs9,094 lbKurt Kalbfleisch
2020-08-08AAL2735KMIA KSJC KMIA POTTR HITAG KAINS FORKK HOSFU BORLE WINCO CHRRI SRQ PIE ENDEW SWABE PLYER LEGGT SZW MAI CEW CATLN MEI MHZ KAMEN STAGE MIXIE BERKE EIC BYP PNH FTI TANER TBC CORKR CUNDY RENTT LAS JEDNA CENIT TUMBE ESSAA KENNO VIKSN CABAB NTELL TROXX SILCN VLLEY GUUYY WLSSN GSTEE KLIDE JENES RW30L5.5 hrs5.3 hrs34,987 lbGeorge
2020-07-25AAL2195KBOS KMIA KBOS SSOXS BUZRD SEY HTO HTO15 RIFLE GEDIC EMJAY YAZUU ZIZZI WARNN SWL CEBEE WETRO DIWNB SEELO JENKS HOAGG BGDOG JORAY KMIA3 hrs2.7 hrs14,975 lbMike Dryden
2020-07-19AAL2384KORD KBOS KORD EBAKE WISMO POSTS PADDE SVM DKK PONCT KBOS2.2 hrs1.8 hrs11,081 lbMike Dryden
2020-07-17AAL2488KCLT KORD KCLT LACHN YNGUN BOBZY BRAYN REWET HALLS BAZOO BNA FTZ GROOV CASHN VINCA MAROC TRICH TRTLL HIHRY RINNO JORJO MONKZ TONIE HAZIL RW28C2.3 hrs1.8 hrs13,395 lbGeorge
2020-07-12AAL2895KORD KCLT KORD EARND ELANR EMMLY ERECO IIU SKYWA NIZAM COMDY BLAYQ PHAYE JJENY FILPZ ADOWN INWAL JELNO CEDOX VALLL NIVSE RW36C1.8 hrs1.4 hrs10,882 lbGeorge
2020-07-11AAL4520KSDF KORD KSDF RRROE STREP MZZ FRIDG WATSN MKITA ESSPO LAACY IZARD CABIJ MONKZ JORJO POSSM HAZIL RW28C1.2 hrs0.8 hrs7,094 lbGeorge
2020-07-11AAL4076KORD KSDF KORD DENNT DARCY DREGS DONVE TTH SACKO CHERI IIU AWLEE RW35L1.1 hrs0.9 hrs6,702 lbGeorge
2020-07-09AAL4505KMSP KORD KMSP PEDLN ZONVO DBQ JVL BULLZ TEDDY KRENA HAZIL RW28C1.4 hrs1.1 hrs8,042 lbGeorge
2020-07-02AAL1282KORD KMSP KORD PMPKN NEATO DLLAN RONIC KAMMA BEERI ROBBY KBULL ZZING HENDR CMAAC KKILR HUGGI KRISP AFTYN CMMOE COZZZ HAMML RW12L1.2 hrs1 hrs6,903 lbGeorge
2020-06-21AAL1408KTPA KORD 2.7 hrs2.4 hrs15,877 lbGeorge
2020-06-21AAL1632KCLT KTPA 1.5 hrs1.2 hrs8,528 lbGeorge
2020-06-21AAL5289KORD KCLT KORD EARND ELANR EMMLY ERECO IIU SKYWA NIZAM COMDY BLAYQ PHAYE JJENY FILPZ ADOWN INWAL JELNO CEDOX VALLL NIVSE RW36C1.9 hrs1.5 hrs10,595 lbGeorge
2020-06-20AAL1463KDFW KORD KDFW SPERA JGIRL CORTS BIGGD CMORE BLECO ZEMMA TUL DOSOA MCI IRK LOAMY KEOKK DRAMS RYELY BDF BYLAW BENKY NEWRK AHSTN PETAH JORJO MONKZ TONIE HAZIL RW28C2.1 hrs1.8 hrs13,059 lbGeorge
2020-06-19AAL519KBHM KDFW KBHM JOEYE IGB MLU YUYUN WAITT PLMER OUTLN VEEYO BEREE BELLS TACKE WARDZ DIETZ WHOOT HEDMN KDFW1.9 hrs1.6 hrs10,315 lbChemtrails